Time;durP1;ratioP1;P1;durP2;ratioP2;P2;SDS_P1;SDS_P2;PMS_P1;PMS_P2;Temp;Humidity;BMP_temperature;BMP_pressure;BME280_temperature;BME280_humidity;BME280_pressure;Samples;Min_cycle;Max_cycle;Signal;HPM_P1;HPM_P2
2022/05/21 00:00:21;;;;;;;5.20;2.22;;;;;;;19.83;67.00;97792.55;1742370;82;20898;-87
2022/05/21 00:02:50;;;;;;;5.08;1.75;;;;;;;19.64;67.64;97795.86;1742974;81;21448;-88
2022/05/21 00:05:17;;;;;;;3.92;2.00;;;;;;;19.46;68.96;97773.85;1725095;82;21068;-88
2022/05/21 00:07:43;;;;;;;6.20;2.10;;;;;;;19.29;69.89;97769.95;1703033;84;21469;-82
2022/05/21 00:10:09;;;;;;;3.95;1.80;;;;;;;19.11;71.24;97763.30;1735302;80;21447;-81
2022/05/21 00:12:35;;;;;;;4.87;1.87;;;;;;;18.97;70.88;97759.27;1743215;81;21437;-82
2022/05/21 00:15:02;;;;;;;2.72;1.77;;;;;;;18.86;71.68;97742.44;1731612;80;21010;-86
2022/05/21 00:17:27;;;;;;;4.58;2.05;;;;;;;18.73;72.31;97733.40;1714096;83;21031;-82
2022/05/21 00:19:53;;;;;;;5.45;2.52;;;;;;;18.63;73.06;97731.60;1723865;80;21735;-82
2022/05/21 00:22:19;;;;;;;9.40;2.15;;;;;;;18.53;73.71;97719.12;1728532;80;21302;-82
2022/05/21 00:24:45;;;;;;;4.50;1.90;;;;;;;18.44;75.00;97712.92;1733660;80;20898;-85
2022/05/21 00:27:11;;;;;;;3.60;2.02;;;;;;;18.40;75.08;97709.27;1718023;82;20909;-82
2022/05/21 00:29:37;;;;;;;2.87;1.90;;;;;;;18.38;75.18;97711.55;1722082;80;21032;-82
2022/05/21 00:32:04;;;;;;;4.15;2.10;;;;;;;18.35;74.94;97700.66;1740380;81;21382;-87
2022/05/21 00:34:30;;;;;;;2.92;1.55;;;;;;;18.34;75.04;97701.81;1721684;82;21299;-82
2022/05/21 00:36:56;;;;;;;3.75;2.12;;;;;;;18.33;75.18;97690.61;1743196;81;20893;-87
2022/05/21 00:39:22;;;;;;;3.10;1.45;;;;;;;18.32;75.11;97683.52;1743156;82;21669;-82
2022/05/21 00:41:48;;;;;;;4.60;2.00;;;;;;;18.33;75.16;97672.21;1722973;82;20959;-87
2022/05/21 00:44:14;;;;;;;7.58;1.72;;;;;;;18.37;75.41;97656.44;1714046;80;22289;-87
2022/05/21 00:46:43;;;;;;;3.25;1.72;;;;;;;18.36;75.03;97661.70;1732395;81;21157;-86
2022/05/21 00:49:17;;;;;;;;;;;;;;;18.40;74.92;97662.64;1734479;82;21081;-83
2022/05/21 00:51:54;;;;;;;5.58;1.62;;;;;;;18.42;74.59;97653.48;1713654;83;20537;-87
2022/05/21 00:54:31;;;;;;;2.17;1.35;;;;;;;18.43;74.23;97648.23;1713593;80;21137;-81
2022/05/21 00:57:01;;;;;;;5.17;2.40;;;;;;;18.47;73.96;97656.03;1735796;80;21437;-87
2022/05/21 01:02:11;;;;;;;5.67;1.65;;;;;;;18.51;73.39;97651.45;1728375;80;21021;-87
2022/05/21 01:04:37;;;;;;;3.17;1.60;;;;;;;18.52;73.10;97656.59;1727519;82;20902;-87
2022/05/21 01:07:04;;;;;;;3.22;1.80;;;;;;;18.55;72.90;97649.07;1705305;82;21085;-82
2022/05/21 01:09:30;;;;;;;2.02;1.50;;;;;;;18.59;72.49;97662.33;1716229;80;21065;-87
2022/05/21 01:11:56;;;;;;;3.27;1.60;;;;;;;18.64;72.38;97650.91;1766193;80;21223;-82
2022/05/21 01:14:22;;;;;;;1.67;1.07;;;;;;;18.67;72.12;97643.39;1755217;80;20927;-87
2022/05/21 01:16:49;;;;;;;2.75;1.45;;;;;;;18.71;71.75;97625.88;1728411;80;20905;-82
2022/05/21 01:19:15;;;;;;;4.37;2.33;;;;;;;18.74;71.45;97619.73;1734536;82;21580;-87
2022/05/21 01:21:41;;;;;;;2.65;1.30;;;;;;;18.77;71.33;97619.03;1743182;82;20961;-87
2022/05/21 01:24:08;;;;;;;3.00;1.32;;;;;;;18.77;71.42;97620.98;1734539;80;20903;-88
2022/05/21 01:26:34;;;;;;;5.12;1.30;;;;;;;18.75;71.47;97632.30;1723085;82;21009;-82
2022/05/21 01:29:02;;;;;;;2.42;1.60;;;;;;;18.71;71.51;97627.83;1722676;80;21009;-82
2022/05/21 01:31:28;;;;;;;3.60;1.83;;;;;;;18.84;70.09;97617.09;1743194;81;21064;-82
2022/05/21 01:33:54;;;;;;;4.50;1.80;;;;;;;18.84;70.09;97617.09;1743175;82;20973;-87
2022/05/21 01:36:20;;;;;;;1.77;1.07;;;;;;;18.90;69.98;97612.19;1742978;81;21139;-82
2022/05/21 01:38:46;;;;;;;3.55;1.50;;;;;;;18.91;69.68;97622.83;1739776;80;21660;-87
2022/05/21 01:41:12;;;;;;;3.85;1.60;;;;;;;18.90;69.56;97621.80;1728446;80;21050;-87
2022/05/21 01:46:22;;;;;;;3.55;1.40;;;;;;;18.87;69.33;97621.89;1727950;82;21017;-87
2022/05/21 01:48:48;;;;;;;4.50;1.70;;;;;;;18.81;69.32;97630.95;1714242;82;21603;-87
2022/05/21 01:51:14;;;;;;;4.17;2.30;;;;;;;18.77;69.32;97628.64;1726744;80;20878;-82
2022/05/21 01:53:40;;;;;;;3.65;1.42;;;;;;;18.75;69.48;97631.51;1739916;80;21648;-87
2022/05/21 01:56:07;;;;;;;3.25;1.85;;;;;;;18.73;69.62;97637.34;1728363;80;21007;-88
2022/05/21 01:58:33;;;;;;;2.65;1.50;;;;;;;18.69;69.53;97639.73;1726696;80;21100;-82
2022/05/21 02:00:59;;;;;;;2.65;1.50;;;;;;;18.64;69.58;97639.37;1723910;80;21305;-82
2022/05/21 02:03:25;;;;;;;3.72;1.75;;;;;;;18.61;69.60;97638.66;1739978;81;20941;-87
2022/05/21 02:05:52;;;;;;;5.08;1.10;;;;;;;18.58;69.65;97638.78;1711663;83;20991;-82
2022/05/21 02:08:17;;;;;;;2.17;1.30;;;;;;;18.56;69.64;97635.58;1703652;80;20962;-81
2022/05/21 02:10:44;;;;;;;3.33;1.72;;;;;;;18.52;69.67;97637.95;1743268;82;20953;-82
2022/05/21 02:13:18;;;;;;;1.52;1.35;;;;;;;18.47;69.80;97638.20;1721342;82;21188;-86
2022/05/21 02:15:44;;;;;;;3.47;1.42;;;;;;;18.43;70.14;97635.31;1743040;82;21959;-87
2022/05/21 02:18:11;;;;;;;2.95;1.40;;;;;;;18.40;70.25;97637.38;1742936;81;20870;-88
2022/05/21 02:20:38;;;;;;;2.47;1.47;;;;;;;18.40;70.24;97636.58;1725383;80;21029;-87
2022/05/21 02:23:04;;;;;;;3.80;1.67;;;;;;;18.36;70.63;97637.02;1713492;83;21060;-82
2022/05/21 02:25:29;;;;;;;3.27;1.95;;;;;;;18.35;70.80;97626.61;1727608;82;21223;-88
2022/05/21 02:27:55;;;;;;;1.87;1.37;;;;;;;18.36;71.32;97626.84;1713476;83;20935;-87
2022/05/21 02:30:21;;;;;;;2.33;1.50;;;;;;;18.31;71.39;97625.13;1714886;80;20974;-83
2022/05/21 02:32:48;;;;;;;3.12;1.85;;;;;;;18.26;71.22;97617.68;1728414;81;21019;-87
2022/05/21 02:35:14;;;;;;;4.33;2.15;;;;;;;18.23;71.66;97623.28;1716890;80;21105;-87
2022/05/21 02:40:25;;;;;;;3.08;1.52;;;;;;;18.19;71.90;97625.66;1705149;82;21420;-87
2022/05/21 02:42:51;;;;;;;3.05;1.67;;;;;;;18.15;71.89;97626.91;1703148;84;20976;-86
2022/05/21 02:45:25;;;;;;;2.30;1.75;;;;;;;18.12;71.95;97622.69;1735150;80;20945;-87
2022/05/21 02:47:53;;;;;;;2.08;1.47;;;;;;;18.08;72.02;97616.27;1713328;82;21025;-82
2022/05/21 02:50:24;;;;;;;3.10;1.55;;;;;;;18.08;72.73;97615.69;1725256;80;22218;-82
2022/05/21 02:52:50;;;;;;;4.25;1.75;;;;;;;18.12;72.35;97613.89;1713040;82;21030;-87
2022/05/21 02:55:16;;;;;;;9.85;1.77;;;;;;;18.18;72.36;97615.27;1736899;80;20981;-88
2022/05/21 02:57:42;;;;;;;3.58;1.75;;;;;;;18.21;72.28;97602.27;1714673;82;21057;-82
2022/05/21 03:00:16;;;;;;;4.80;1.60;;;;;;;18.29;72.30;97610.16;1742848;80;21025;-87
2022/05/21 03:02:42;;;;;;;3.95;1.80;;;;;;;18.33;71.92;97615.98;1743100;81;21153;-87
2022/05/21 03:05:08;;;;;;;2.62;1.57;;;;;;;18.41;71.60;97627.20;1717458;82;20961;-82
2022/05/21 03:07:45;;;;;;;4.65;2.20;;;;;;;18.45;71.43;97630.28;1713751;83;21464;-82
2022/05/21 03:10:22;;;;;;;3.52;1.85;;;;;;;18.47;71.25;97636.83;1713866;80;21022;-87
2022/05/21 03:12:59;;;;;;;3.85;2.40;;;;;;;18.50;71.28;97620.47;1728473;81;21074;-82
2022/05/21 03:15:36;;;;;;;11.18;1.72;;;;;;;18.56;71.13;97619.12;1727878;80;21465;-82
2022/05/21 03:18:07;;;;;;;5.28;1.80;;;;;;;18.59;70.97;97619.00;1728732;81;21086;-81
2022/05/21 03:20:33;;;;;;;2.77;1.80;;;;;;;18.61;71.01;97632.59;1725637;80;21057;-82
2022/05/21 03:22:59;;;;;;;6.20;2.12;;;;;;;18.65;71.07;97634.13;1713619;82;21002;-88
2022/05/21 03:25:25;;;;;;;3.12;1.80;;;;;;;18.64;70.97;97635.82;1720591;80;20917;-82
2022/05/21 03:27:51;;;;;;;2.60;1.30;;;;;;;18.65;70.90;97631.39;1703108;84;21173;-82
2022/05/21 03:30:21;;;;;;;2.90;1.60;;;;;;;18.68;70.76;97627.16;1713145;80;21085;-82
2022/05/21 03:32:47;;;;;;;2.90;1.42;;;;;;;18.71;70.78;97629.20;1728484;81;21041;-82
2022/05/21 03:35:13;;;;;;;4.50;2.05;;;;;;;18.74;70.64;97627.16;1716639;80;21017;-87
2022/05/21 03:37:39;;;;;;;5.60;1.72;;;;;;;18.76;70.47;97628.98;1713568;83;21018;-88
2022/05/21 03:40:08;;;;;;;3.90;2.00;;;;;;;18.79;70.28;97633.21;1706528;80;21227;-88
2022/05/21 03:42:34;;;;;;;3.67;1.80;;;;;;;18.85;70.05;97631.05;1679167;85;21060;-82
2022/05/21 03:45:00;;;;;;;6.22;2.40;;;;;;;18.87;69.88;97624.64;1734948;82;21040;-83
2022/05/21 03:47:26;;;;;;;3.60;1.57;;;;;;;18.97;69.66;97626.12;1715049;82;20990;-86
2022/05/21 03:49:53;;;;;;;3.92;1.70;;;;;;;19.05;69.27;97624.63;1733751;80;22452;-82
2022/05/21 03:52:18;;;;;;;3.50;1.82;;;;;;;19.09;69.02;97622.01;1743060;81;21170;-88
2022/05/21 03:54:44;;;;;;;1.92;1.22;;;;;;;19.14;68.72;97630.83;1742896;82;20945;-88
2022/05/21 03:57:11;;;;;;;7.12;2.00;;;;;;;19.19;68.40;97628.40;1743146;81;20996;-88
2022/05/21 03:59:37;;;;;;;4.47;1.57;;;;;;;19.23;68.28;97621.09;1735049;80;21068;-82
2022/05/21 04:02:05;;;;;;;2.67;1.80;;;;;;;19.27;68.08;97620.61;1722006;82;21666;-88
2022/05/21 04:04:31;;;;;;;6.87;1.90;;;;;;;19.33;67.71;97614.31;1735257;82;21083;-82
2022/05/21 04:06:57;;;;;;;4.60;1.90;;;;;;;19.37;67.52;97612.45;1713388;83;20995;-88
2022/05/21 04:09:23;;;;;;;3.00;2.10;;;;;;;19.42;67.22;97613.03;1721035;80;21005;-82
2022/05/21 04:11:49;;;;;;;4.65;1.95;;;;;;;19.46;67.00;97607.63;1738645;80;20878;-82
2022/05/21 04:14:15;;;;;;;3.67;2.02;;;;;;;19.49;66.87;97605.58;1731154;82;20995;-88
2022/05/21 04:16:46;;;;;;;5.85;1.65;;;;;;;19.51;66.72;97611.52;1713583;83;21288;-88
2022/05/21 04:19:09;;;;;;;4.03;1.90;;;;;;;19.54;66.57;97605.89;1724228;80;21080;-88
2022/05/21 04:21:35;;;;;;;6.50;1.92;;;;;;;19.58;66.48;97605.47;1725301;82;20986;-82
2022/05/21 04:24:01;;;;;;;4.42;1.72;;;;;;;19.63;66.53;97603.25;1719242;80;20939;-88
2022/05/21 04:26:27;;;;;;;3.42;1.55;;;;;;;19.69;66.34;97616.19;1728631;82;21085;-88
2022/05/21 04:28:53;;;;;;;3.37;1.57;;;;;;;19.73;66.34;97617.88;1717349;80;21865;-88
2022/05/21 04:31:23;;;;;;;3.12;1.80;;;;;;;19.78;66.01;97617.42;1735484;82;20862;-88
2022/05/21 04:33:47;;;;;;;4.43;1.73;;;;;;;19.79;66.12;97626.69;1738051;80;20998;-82
2022/05/21 04:36:19;;;;;;;6.00;2.40;;;;;;;19.81;66.18;97633.20;1738972;82;21483;-88
2022/05/21 04:38:47;;;;;;;4.75;1.95;;;;;;;19.82;66.11;97630.09;1739490;80;21479;-88
2022/05/21 04:41:13;;;;;;;6.33;1.92;;;;;;;19.83;66.04;97620.73;1721999;82;21237;-82
2022/05/21 04:43:39;;;;;;;5.90;2.02;;;;;;;19.83;65.91;97624.85;1718582;80;20945;-89
2022/05/21 04:46:06;;;;;;;4.25;2.00;;;;;;;19.86;65.81;97634.34;1743212;82;20989;-82
2022/05/21 04:48:32;;;;;;;8.40;4.50;;;;;;;19.87;65.78;97632.61;1740910;80;21003;-82
2022/05/21 04:50:59;;;;;;;5.92;2.55;;;;;;;19.88;65.80;97643.83;1733561;80;20949;-82
2022/05/21 04:53:25;;;;;;;3.70;2.67;;;;;;;19.87;65.98;97646.94;1743015;81;21937;-81
2022/05/21 04:55:51;;;;;;;4.95;2.33;;;;;;;19.87;66.05;97642.81;1743220;82;20894;-88
2022/05/21 04:58:17;;;;;;;5.72;2.33;;;;;;;19.89;66.27;97639.13;1742561;81;20874;-89
2022/05/21 05:00:43;;;;;;;7.03;2.10;;;;;;;19.98;66.04;97639.78;1717160;80;20935;-88
2022/05/21 05:03:16;;;;;;;5.28;2.45;;;;;;;20.03;65.92;97649.16;1728492;81;21751;-82
2022/05/21 05:05:43;;;;;;;5.28;2.45;;;;;;;20.04;65.70;97635.63;1723930;81;21147;-82
2022/05/21 05:08:09;;;;;;;6.00;2.40;;;;;;;20.04;65.70;97640.34;1743106;81;21009;-82
2022/05/21 05:10:36;;;;;;;6.33;2.20;;;;;;;20.04;65.77;97634.26;1731391;80;20990;-88
2022/05/21 05:13:03;;;;;;;8.35;3.62;;;;;;;20.02;65.85;97635.19;1743016;81;21013;-82
2022/05/21 05:15:29;;;;;;;8.53;2.22;;;;;;;20.01;66.02;97645.97;1707422;82;22251;-88
2022/05/21 05:18:07;;;;;;;5.22;2.42;;;;;;;19.92;66.30;97646.12;1713464;83;21772;-82
2022/05/21 05:20:33;;;;;;;9.65;2.98;;;;;;;19.88;66.60;97628.70;1716706;80;21478;-82
2022/05/21 05:22:59;;;;;;;7.87;2.85;;;;;;;19.83;67.01;97636.42;1728537;81;20962;-88
2022/05/21 05:25:25;;;;;;;11.45;3.75;;;;;;;19.79;67.33;97647.88;1735899;80;20937;-82
2022/05/21 05:27:50;;;;;;;6.12;3.05;;;;;;;19.73;68.39;97645.94;1713444;83;20913;-88
2022/05/21 05:30:18;;;;;;;9.73;3.20;;;;;;;19.57;70.00;97655.51;1706966;80;21176;-86
2022/05/21 05:32:44;;;;;;;11.60;3.63;;;;;;;19.43;70.43;97650.92;1743413;81;21068;-88
2022/05/21 05:35:11;;;;;;;6.37;3.05;;;;;;;19.27;71.09;97664.55;1736634;80;20900;-89
2022/05/21 05:37:37;;;;;;;7.62;3.27;;;;;;;19.13;71.48;97669.02;1713370;83;21062;-88
2022/05/21 05:40:04;;;;;;;8.43;2.58;;;;;;;18.98;72.68;97667.55;1725504;80;20880;-82
2022/05/21 05:42:30;;;;;;;7.33;2.95;;;;;;;18.83;74.07;97679.44;1728425;80;21290;-88
2022/05/21 05:44:56;;;;;;;6.22;3.20;;;;;;;18.68;74.07;97688.89;1728511;80;20844;-81
2022/05/21 05:47:22;;;;;;;6.80;3.12;;;;;;;18.56;74.40;97691.02;1728379;80;21575;-89
2022/05/21 05:49:48;;;;;;;9.40;3.47;;;;;;;18.46;75.28;97692.83;1738110;80;20874;-88
2022/05/21 05:52:15;;;;;;;7.35;3.15;;;;;;;18.34;76.58;97686.72;1743128;81;21571;-88
2022/05/21 05:54:41;;;;;;;8.00;3.60;;;;;;;18.32;76.82;97697.23;1743304;82;21176;-81
2022/05/21 05:57:12;;;;;;;7.53;3.52;;;;;;;18.29;77.40;97700.09;1743019;81;21020;-88
2022/05/21 05:59:50;;;;;;;5.95;3.37;;;;;;;18.27;78.56;97707.84;1720028;82;21046;-89
2022/05/21 06:05:15;;;;;;;8.45;3.42;;;;;;;18.22;78.43;97723.72;1712008;80;21455;-82
2022/05/21 06:07:43;;;;;;;13.08;3.60;;;;;;;18.19;78.91;97717.52;1742942;81;22056;-88
2022/05/21 06:10:10;;;;;;;6.90;3.62;;;;;;;18.15;79.71;97716.02;1711666;82;21487;-82
2022/05/21 06:12:35;;;;;;;11.75;5.08;;;;;;;18.16;79.83;97723.11;1725319;82;20997;-82
2022/05/21 06:15:01;;;;;;;6.08;4.40;;;;;;;18.16;79.23;97720.37;1731960;80;20918;-82
2022/05/21 06:17:27;;;;;;;10.32;4.42;;;;;;;18.19;79.18;97725.17;1728434;81;21667;-81
2022/05/21 06:19:53;;;;;;;13.13;4.28;;;;;;;18.22;79.23;97723.14;1738300;80;21055;-88
2022/05/21 06:22:19;;;;;;;6.58;4.80;;;;;;;18.25;79.35;97712.06;1742993;81;20933;-81
2022/05/21 06:24:45;;;;;;;9.10;4.80;;;;;;;18.25;79.65;97722.46;1743300;82;20978;-85
2022/05/21 06:27:11;;;;;;;10.50;5.30;;;;;;;18.26;79.98;97717.20;1743037;81;20878;-83
2022/05/21 06:29:37;;;;;;;6.92;3.75;;;;;;;18.27;80.78;97722.12;1743223;82;20969;-82
2022/05/21 06:32:07;;;;;;;5.37;3.52;;;;;;;18.29;80.93;97725.34;1743125;81;21090;-84
2022/05/21 06:34:34;;;;;;;8.98;4.17;;;;;;;18.31;80.49;97725.23;1761825;80;21032;-84
2022/05/21 06:37:10;;;;;;;6.67;3.67;;;;;;;18.34;80.66;97723.75;1727771;82;20997;-83
2022/05/21 06:39:36;;;;;;;12.20;4.70;;;;;;;18.44;81.26;97723.32;1734331;80;21057;-85
2022/05/21 06:42:03;;;;;;;10.20;3.95;;;;;;;18.52;80.83;97720.27;1740096;80;20996;-88
2022/05/21 06:44:29;;;;;;;11.95;3.87;;;;;;;18.58;81.09;97732.06;1735081;80;21865;-82
2022/05/21 06:46:55;;;;;;;7.10;4.33;;;;;;;18.68;81.76;97729.48;1728435;80;21055;-88
2022/05/21 06:49:21;;;;;;;10.95;3.87;;;;;;;18.74;81.36;97730.08;1716037;81;21036;-81
2022/05/21 06:51:51;;;;;;;7.53;4.35;;;;;;;18.95;81.19;97735.48;1722767;82;21064;-82
2022/05/21 06:54:16;;;;;;;16.25;4.20;;;;;;;19.06;81.28;97727.05;1710331;82;22049;-88
2022/05/21 06:56:42;;;;;;;11.22;3.90;;;;;;;19.09;80.80;97739.52;1726087;82;21139;-89
2022/05/21 06:59:09;;;;;;;8.48;4.03;;;;;;;19.16;80.70;97740.32;1724461;80;20989;-89
2022/05/21 07:01:34;;;;;;;8.08;4.22;;;;;;;19.33;80.63;97747.55;1743387;81;20918;-83
2022/05/21 07:04:00;;;;;;;10.88;4.55;;;;;;;19.55;80.17;97754.50;1741423;82;20931;-82
2022/05/21 07:09:11;;;;;;;8.80;3.92;;;;;;;20.24;79.25;97741.09;1742431;80;21121;-88
2022/05/21 07:11:37;;;;;;;7.75;4.12;;;;;;;20.46;77.69;97739.78;1738627;82;20997;-81
2022/05/21 07:14:03;;;;;;;8.40;5.55;;;;;;;21.00;77.09;97742.80;1714472;82;21659;-82
2022/05/21 07:16:29;;;;;;;11.25;5.40;;;;;;;21.26;74.96;97744.22;1724930;80;21009;-82
2022/05/21 07:18:55;;;;;;;9.70;5.22;;;;;;;21.35;71.14;97754.51;1722021;82;21355;-82
2022/05/21 07:21:21;;;;;;;6.65;4.78;;;;;;;20.90;73.68;97748.03;1715804;80;21151;-89
2022/05/21 07:23:48;;;;;;;5.05;3.50;;;;;;;20.26;72.98;97757.50;1720546;82;20874;-82
2022/05/21 07:26:15;;;;;;;7.58;3.87;;;;;;;19.82;73.26;97775.00;1716224;82;21024;-82
2022/05/21 07:28:41;;;;;;;5.90;2.90;;;;;;;19.57;72.80;97771.47;1744284;80;21073;-87
2022/05/21 07:31:07;;;;;;;13.50;4.97;;;;;;;19.30;73.27;97788.84;1728708;80;21604;-88
2022/05/21 07:33:32;;;;;;;12.20;3.98;;;;;;;19.54;72.73;97783.13;1730263;80;21325;-88
2022/05/21 07:35:58;;;;;;;5.95;4.00;;;;;;;20.23;71.79;97787.63;1743201;82;20871;-89
2022/05/21 07:38:24;;;;;;;4.95;3.30;;;;;;;20.52;69.27;97782.42;1741828;80;21111;-82
2022/05/21 07:40:52;;;;;;;13.98;7.70;;;;;;;20.82;69.20;97771.25;1724337;80;21310;-88
2022/05/21 07:43:21;;;;;;;8.58;3.62;;;;;;;21.30;67.50;97787.28;1713619;80;21062;-82
2022/05/21 07:45:47;;;;;;;9.48;3.52;;;;;;;21.36;67.17;97786.42;1719747;80;21325;-81
2022/05/21 07:48:15;;;;;;;8.73;3.00;;;;;;;21.67;66.82;97779.51;1730685;81;21035;-89
2022/05/21 07:50:44;;;;;;;6.37;3.08;;;;;;;22.34;65.54;97786.34;1720545;82;21524;-82
2022/05/21 07:53:20;;;;;;;5.45;3.22;;;;;;;21.96;62.88;97789.80;1743046;81;21005;-88
2022/05/21 07:55:50;;;;;;;7.05;3.20;;;;;;;21.76;64.76;97790.34;1655996;85;37493;-89
2022/05/21 07:58:17;;;;;;;5.37;2.62;;;;;;;21.19;65.22;97804.65;1678315;84;21500;-88
2022/05/21 08:00:44;;;;;;;6.47;3.67;;;;;;;20.90;64.81;97786.01;1712496;82;20998;-88
2022/05/21 08:03:09;;;;;;;7.20;3.50;;;;;;;21.52;64.03;97791.93;1711936;82;21037;-82
2022/05/21 08:05:37;;;;;;;6.47;4.55;;;;;;;22.23;62.89;97797.17;1715536;80;22464;-82
2022/05/21 08:08:03;;;;;;;10.72;3.45;;;;;;;23.15;60.75;97803.51;1738046;81;21472;-89
2022/05/21 08:10:29;;;;;;;6.78;2.87;;;;;;;22.66;59.57;97804.95;1730978;80;21091;-83
2022/05/21 08:12:55;;;;;;;10.70;3.45;;;;;;;22.04;60.64;97810.88;1743049;81;20991;-81
2022/05/21 08:15:21;;;;;;;8.95;3.05;;;;;;;21.35;61.13;97816.52;1743392;82;21159;-87
2022/05/21 08:17:47;;;;;;;5.15;2.80;;;;;;;21.48;61.36;97800.70;1743178;81;20890;-88
2022/05/21 08:20:13;;;;;;;4.05;2.70;;;;;;;21.82;60.48;97805.47;1743416;82;21021;-82
2022/05/21 08:28:09;;;;;;;7.55;3.60;;;;;;;21.19;59.73;97815.67;1713465;83;21452;-82
2022/05/21 08:30:35;;;;;;;5.62;2.55;;;;;;;20.94;59.98;97832.94;1741699;80;20889;-82
2022/05/21 08:33:04;;;;;;;5.53;2.10;;;;;;;20.59;60.16;97832.14;1713541;83;21013;-82
2022/05/21 08:35:30;;;;;;;8.53;2.55;;;;;;;20.48;59.94;97837.92;1737719;80;21572;-82
2022/05/21 08:37:56;;;;;;;11.50;2.50;;;;;;;20.22;60.17;97847.35;1742910;81;21017;-87
2022/05/21 08:40:22;;;;;;;5.20;2.20;;;;;;;20.10;60.50;97846.59;1726227;80;21536;-88
2022/05/21 08:42:56;;;;;;;3.65;1.77;;;;;;;19.88;60.17;97858.86;1729786;82;20886;-86
2022/05/21 08:45:25;;;;;;;3.47;1.95;;;;;;;19.58;59.57;97855.55;1743283;82;21083;-82
2022/05/21 08:48:01;;;;;;;3.87;1.70;;;;;;;19.70;59.34;97859.66;1743209;81;21053;-82
2022/05/21 08:50:28;;;;;;;7.10;2.77;;;;;;;19.51;58.79;97864.31;1742676;82;21437;-82
2022/05/21 08:53:12;;;;;;;2.47;1.70;;;;;;;19.38;57.62;97871.72;1742928;81;21029;-82
2022/05/21 08:55:42;;;;;;;7.33;1.70;;;;;;;19.49;58.12;97872.10;1729180;80;21001;-88
2022/05/21 08:58:25;;;;;;;5.40;1.62;;;;;;;19.68;57.44;97885.32;1713372;82;21491;-81
2022/05/21 09:00:51;;;;;;;3.10;1.40;;;;;;;20.03;54.64;97877.98;1717435;80;21049;-87
2022/05/21 09:03:20;;;;;;;7.95;2.22;;;;;;;20.76;53.44;97870.96;1713277;80;20930;-82
2022/05/21 09:05:51;;;;;;;8.93;1.80;;;;;;;20.46;51.89;97894.69;1718389;82;21334;-82
2022/05/21 09:08:48;;;;;;;6.15;1.30;;;;;;;20.52;52.52;97888.38;1712929;82;21080;-87
2022/05/21 09:11:40;;;;;;;6.80;2.22;;;;;;;20.31;53.10;97892.62;1742974;82;21552;-82
2022/05/21 09:14:41;;;;;;;6.08;1.40;;;;;;;20.37;51.68;97889.06;1725685;82;21211;-82
2022/05/21 09:17:12;;;;;;;9.60;2.00;;;;;;;20.18;52.63;97889.67;1739644;81;21088;-87
2022/05/21 09:19:42;;;;;;;3.27;1.30;;;;;;;20.45;52.55;97898.59;1712142;82;21002;-87
2022/05/21 09:22:13;;;;;;;2.80;1.50;;;;;;;20.65;51.84;97898.19;1728907;80;20987;-82
2022/05/21 09:24:53;;;;;;;13.35;2.35;;;;;;;20.82;51.62;97884.14;1731915;81;21039;-87
2022/05/21 09:27:39;;;;;;;4.12;1.30;;;;;;;21.65;50.94;97882.47;1735017;80;22337;-82
2022/05/21 09:30:28;;;;;;;10.00;1.32;;;;;;;21.91;47.68;97883.88;1742762;80;21013;-86
2022/05/21 09:32:57;;;;;;;5.58;1.27;;;;;;;23.45;44.63;97876.92;1742998;81;20997;-87
2022/05/21 09:35:32;;;;;;;5.58;1.07;;;;;;;24.19;44.22;97887.08;1740251;82;21025;-88
2022/05/21 09:38:15;;;;;;;3.10;1.12;;;;;;;25.63;43.09;97882.13;1713204;83;21065;-88
2022/05/21 09:40:41;;;;;;;4.37;1.30;;;;;;;26.62;39.68;97874.59;1720055;80;21108;-84
2022/05/21 09:46:26;;;;;;;6.07;1.33;;;;;;;29.31;33.09;97875.63;1718388;80;21458;-83
2022/05/21 09:48:54;;;;;;;2.22;1.20;;;;;;;30.06;31.50;97872.30;1721736;80;21061;-89
2022/05/21 09:51:29;;;;;;;6.55;1.37;;;;;;;29.65;31.75;97879.99;1707002;82;21056;-89
2022/05/21 09:53:56;;;;;;;9.88;1.12;;;;;;;29.49;33.15;97882.52;1721328;80;21070;-89
2022/05/21 09:56:31;;;;;;;4.05;1.65;;;;;;;28.61;31.47;97873.30;1735813;80;21068;-83
2022/05/21 09:59:15;;;;;;;3.50;1.05;;;;;;;28.15;32.19;97878.94;1737721;81;21043;-84
2022/05/21 10:01:48;;;;;;;6.87;1.45;;;;;;;27.66;34.52;97869.36;1719898;80;21081;-90
2022/05/21 10:04:33;;;;;;;2.27;1.10;;;;;;;26.63;36.13;97867.84;1725727;80;21418;-83
2022/05/21 10:13:01;;;;;;;8.75;2.08;;;;;;;30.02;33.17;97866.75;1729424;82;21005;-83
2022/05/21 10:15:29;;;;;;;7.03;1.90;;;;;;;30.47;31.31;97863.94;1739460;80;21578;-83
2022/05/21 10:18:09;;;;;;;3.00;1.40;;;;;;;29.42;29.57;97858.21;1743006;81;20996;-89
2022/05/21 10:20:44;;;;;;;37.15;3.47;;;;;;;30.26;29.13;97872.56;1685664;80;21101;-84
2022/05/21 10:23:31;;;;;;;7.67;2.02;;;;;;;29.78;31.01;97866.36;1779222;80;21469;-84
2022/05/21 10:26:29;;;;;;;5.08;1.12;;;;;;;31.68;28.46;97864.41;1734644;82;21020;-83
2022/05/21 10:29:44;;;;;;;7.30;1.22;;;;;;;32.19;27.52;97856.79;1723287;80;20990;-84
2022/05/21 10:32:28;;;;;;;6.87;2.10;;;;;;;32.59;26.61;97860.48;1728341;80;20998;-84
2022/05/21 10:35:10;;;;;;;12.30;2.20;;;;;;;33.49;26.57;97862.23;1738451;80;21041;-84
2022/05/21 10:37:47;;;;;;;23.90;4.53;;;;;;;33.49;26.54;97864.42;1743150;81;21028;-90
2022/05/21 10:40:45;;;;;;;4.58;1.20;;;;;;;34.59;25.68;97862.92;1742441;80;21060;-84
2022/05/21 10:43:20;;;;;;;;;;;;;;;35.16;23.16;97855.69;1741258;81;21013;-88
2022/05/21 10:46:04;;;;;;;4.97;1.15;;;;;;;34.22;22.85;97850.41;1742812;82;20162;-84
2022/05/21 10:49:10;;;;;;;4.25;1.35;;;;;;;34.13;21.80;97856.49;1689399;82;21902;-90
2022/05/21 10:51:42;;;;;;;3.70;1.10;;;;;;;35.15;22.52;97854.89;1720190;82;20990;-85
2022/05/21 10:54:45;;;;;;;2.60;1.02;;;;;;;34.30;23.57;97847.42;1712363;80;21417;-85
2022/05/21 10:57:25;;;;;;;2.22;1.05;;;;;;;33.85;23.76;97855.17;1726456;80;21038;-84
2022/05/21 11:00:14;;;;;;;4.50;1.20;;;;;;;35.14;23.71;97844.09;1737805;80;21084;-85
2022/05/21 11:03:12;;;;;;;1.65;0.90;;;;;;;35.81;23.10;97845.42;1740788;82;22034;-90
2022/05/21 11:06:01;;;;;;;5.03;1.20;;;;;;;34.42;23.70;97848.11;1715469;82;21018;-90
2022/05/21 11:08:39;;;;;;;4.95;1.27;;;;;;;30.74;27.00;97852.09;1714452;80;21009;-89
2022/05/21 11:11:21;;;;;;;6.25;1.27;;;;;;;27.39;30.74;97859.20;1733768;80;21496;-90
2022/05/21 11:14:11;;;;;;;4.60;1.00;;;;;;;29.75;28.28;97853.23;1741855;82;21004;-89
2022/05/21 11:16:46;;;;;;;2.00;1.05;;;;;;;28.30;30.19;97847.12;1743258;81;21892;-89
2022/05/21 11:19:46;;;;;;;4.87;1.27;;;;;;;29.65;28.66;97847.09;1742008;82;21429;-90
2022/05/21 11:22:20;;;;;;;4.70;1.50;;;;;;;30.90;27.31;97849.49;1742354;81;21022;-90
2022/05/21 11:24:54;;;;;;;5.05;1.72;;;;;;;28.91;29.09;97845.74;1730132;80;21453;-84
2022/05/21 11:27:31;;;;;;;2.42;0.98;;;;;;;31.69;26.41;97840.79;1702748;82;21030;-90
2022/05/21 11:30:08;;;;;;;6.35;1.02;;;;;;;31.63;25.48;97843.30;1685691;82;21122;-84
2022/05/21 11:38:36;;;;;;;4.87;1.65;;;;;;;29.86;26.73;97848.34;1686632;82;21072;-90
2022/05/21 11:46:45;;;;;;;4.60;1.40;;;;;;;30.56;27.39;97848.86;1720412;80;21054;-83
2022/05/21 11:49:47;;;;;;;6.62;1.35;;;;;;;29.75;27.65;97849.04;1733875;80;21004;-88
2022/05/21 11:52:33;;;;;;;4.60;0.95;;;;;;;28.19;29.00;97860.22;1716869;82;21034;-88
2022/05/21 11:55:22;;;;;;;3.83;0.90;;;;;;;27.33;30.19;97864.34;1735895;80;20993;-89
2022/05/21 11:57:53;;;;;;;4.05;0.98;;;;;;;27.44;29.10;97851.86;1734687;82;21115;-83
2022/05/21 12:00:24;;;;;;;7.70;1.10;;;;;;;25.66;31.36;97842.55;1733956;80;21445;-83
2022/05/21 12:02:59;;;;;;;4.90;0.90;;;;;;;27.28;29.90;97852.83;1712431;82;21003;-89
2022/05/21 12:05:47;;;;;;;1.77;0.80;;;;;;;29.21;28.14;97859.72;1721323;80;21058;-89
2022/05/21 12:08:15;;;;;;;4.33;1.25;;;;;;;30.96;25.22;97849.83;1712753;83;21584;-89
2022/05/21 12:11:06;;;;;;;11.65;1.02;;;;;;;31.25;25.47;97849.66;1706690;83;21188;-83
2022/05/21 12:13:59;;;;;;;6.33;5.17;;;;;;;30.37;25.40;97846.69;1718235;80;20980;-83
2022/05/21 12:16:30;;;;;;;8.68;1.72;;;;;;;26.94;29.43;97851.70;1729143;81;21020;-89
2022/05/21 12:18:58;;;;;;;3.02;0.80;;;;;;;27.39;28.94;97857.80;1743054;82;21041;-84
2022/05/21 12:21:40;;;;;;;3.50;1.07;;;;;;;26.34;29.42;97869.64;1727974;82;21014;-89
2022/05/21 12:24:28;;;;;;;3.22;0.80;;;;;;;27.22;28.94;97871.88;1721906;80;21193;-89
2022/05/21 12:27:15;;;;;;;3.02;0.70;;;;;;;28.56;27.70;97884.88;1713153;83;21014;-84
2022/05/21 12:29:43;;;;;;;4.00;0.85;;;;;;;29.68;26.00;97875.01;1729038;82;21013;-89